Rootstown, Ohio
Current Conditions -  °F | °C
As of 11:54 PM on Sunday 21 Dec 2014 (Local Time) from KAKR Reporting Station
Clear Clear  
Wind Chill: 27°   Ceiling: Unl
Heat Index: 27°   Visibility: 8mi
Dew Point: 20°   Wind: 3mph
Humidity: 75%   Direction: NA
Pressure: 30.17"   Gusts: NA
Location:  41.1°N, 81.24°W
Report Text: KAKR 220454Z AUTO VRB03KT 8SM CLR M03/M07 A3017 RMK AO2 SLP229 T10281067 400001039 $
Loading
Personal Weather Stations






























Interactive Weather Map New forecast layout! Learn more

10-Day Weather Forecast

Advertisements
Track Severe Weather on mobile